Flight Track Log - Related Links

Times and Time Zones

All times are in EDT time to prevent confusion due to time zone crossing. See the EJM826 flight status page for this flight to view local times or setup timezone preferences in your user account.

Time Position Orientation Groundspeed Altitude Reporting Facility
EDT Latitude Longitude Course Direction KTS MPH feet Rate Location/Type
Sat 12:27:57 PM 29.6308 -95.2847 149° Southeast 145 167 500  Level Houston Center
Sat 12:28:34 PM 29.6106 -95.2706 149° Southeast 171 197 1,700 2,260 Climbing Houston Center
Sat 12:29:14 PM 29.5806 -95.2453 144° Southeast 198 228 3,400 2,754 Climbing Houston Center
Sat 12:29:35 PM 29.5625 -95.2283 141° Southeast 215 247 4,500 2,710 Climbing Houston Center
Sat 12:30:16 PM 29.5344 -95.2031 142° Southeast 213 245 6,200 2,852 Climbing Houston Center
Sat 12:30:36 PM 29.5144 -95.1836 140° Southeast 222 255 7,400 2,656 Climbing Houston Center
Sat 12:31:17 PM 29.4944 -95.1486 123° Southeast 242 278 8,900 1,689 Climbing Houston Center
Sat 12:32:19 PM 29.5128 -95.0675 75° East 275 316 10,300 1,742 Climbing Houston Center
Sat 12:33:21 PM 29.5447 -94.9533 72° East 315 362 12,500 2,098 Climbing Houston Center
Sat 12:34:22 PM 29.5739 -94.8539 71° East 329 379 14,600 1,902 Climbing Houston Center
Sat 12:35:24 PM 29.6033 -94.7503 72° East 340 391 16,400 1,790 Climbing Houston Center
Sat 12:36:26 PM 29.6336 -94.6425 72° East 352 405 18,300 1,694 Climbing Houston Center
Sat 12:37:28 PM 29.6658 -94.5353 71° East 355 409 19,900 1,512 Climbing Houston Center
Sat 12:38:29 PM 29.6928 -94.4231 75° East 363 418 21,400 1,610 Climbing Houston Center
Sat 12:39:31 PM 29.7103 -94.2794 82° East 375 432 23,200 1,452 Climbing Houston Center
Sat 12:40:33 PM 29.7261 -94.1586 81° East 381 438 24,400 1,122 Climbing Houston Center
Sat 12:41:34 PM 29.7442 -94.0281 81° East 386 444 25,500 1,073 Climbing Houston Center
Sat 12:42:36 PM 29.7606 -93.9003 82° East 399 459 26,600 1,113 Climbing Houston Center
Sat 12:43:38 PM 29.7778 -93.7717 81° East 406 467 27,800 1,073 Climbing Houston Center
Sat 12:44:39 PM 29.7944 -93.6419 82° East 410 472 28,800 927 Climbing Houston Center
Sat 12:45:41 PM 29.8111 -93.5111 82° East 418 481 29,700 919 Climbing Houston Center
Sat 12:46:43 PM 29.8278 -93.3792 82° East 420 483 30,700 1,073 Climbing Houston Center
Sat 12:47:44 PM 29.8478 -93.2200 82° East 423 487 31,900 976 Climbing Houston Center
Sat 12:48:46 PM 29.8644 -93.0858 82° East 426 490 32,700 532 Climbing Houston Center
Sat 12:49:48 PM 29.8811 -92.9486 82° East 435 501 33,000 145 Climbing Houston Center
Sat 12:50:50 PM 29.8997 -92.8053 81° East 452 520 33,000  Level Houston Center
Sat 12:51:52 PM 29.9178 -92.6589 82° East 463 533 33,000  Level Houston Center
Sat 12:52:53 PM 29.9344 -92.5119 83° East 464 534 33,000 -780 Level Houston Center
Sat 12:53:55 PM 29.9569 -92.3342 82° East 469 540 31,400 -1,790 Descending Houston Center
Sat 12:54:57 PM 29.9750 -92.1886 82° East 465 535 29,300 -2,049 Descending Houston Center
Sat 12:55:58 PM 29.9914 -92.0439 83° East 460 529 27,200 -2,049 Descending Houston Center
Sat 12:57:00 PM 30.0081 -91.8989 82° East 457 526 25,100 -2,032 Descending Houston Center
Sat 12:58:02 PM 30.0250 -91.7558 82° East 455 524 23,000 -2,177 Descending Houston Center
Sat 12:59:04 PM 30.0447 -91.5964 82° East 444 511 20,600 -2,195 Descending Houston Center
Sat 01:00:05 PM 30.0594 -91.4586 83° East 437 503 18,500 -2,215 Descending Houston Center
Sat 01:00:09 PM 30.0611 -91.4417 84° East 432 497 18,200 -1,935 Descending Houston Center
Sat 01:01:07 PM 30.0756 -91.3258 82° East 423 487 16,500 -1,967 Descending Houston Center
Sat 01:01:10 PM 30.0772 -91.3117 82° East 415 478 16,200 -2,066 Descending Houston Center
Sat 01:02:08 PM 30.0803 -91.1967 88° East 407 468 14,400 -2,100 Descending Houston Center
Sat 01:02:10 PM 30.0783 -91.1819 99° East 401 461 14,100 -2,129 Descending Houston Center
Sat 01:03:10 PM 30.0742 -91.0725 92° East 391 450 12,200 -2,066 Descending Houston Center
Sat 01:03:11 PM 30.0733 -91.0572 94° East 385 443 12,000 -1,258 Descending Houston Center
Sat 01:04:12 PM 30.0703 -90.9347 92° East 383 441 10,900 -1,230 Descending Houston Center
Sat 01:05:13 PM 30.0650 -90.8425 94° East 341 392 9,500 -1,636 Descending Houston Center
Sat 01:06:13 PM 30.0608 -90.7358 93° East 289 333 7,600 -2,032 Descending Houston Center
Sat 01:06:15 PM 30.0625 -90.7275 77° East 308 354 7,400 -1,967 Descending Houston Center
Sat 01:07:14 PM 30.0603 -90.6397 92° East 273 314 5,600 -1,770 Descending Houston Center
Sat 01:07:16 PM 30.0583 -90.6392 166° South 292 336 5,600 -1,700 Level Houston Center
Sat 01:08:14 PM 30.0558 -90.5558 92° East 271 312 3,900 -1,645 Descending Houston Center
Sat 01:08:18 PM 30.0564 -90.5550 52° Northeast 278 320 3,900 -984 Level Houston Center
Sat 01:09:15 PM 30.0456 -90.4817 100° East 228 262 2,900 -984 Descending Houston Center
Sat 01:09:19 PM 30.0475 -90.4822 346° North 250 288 2,900 -1,091 Level Houston Center
Sat 01:10:10 PM 30.0289 -90.4175 108° East 225 259 1,900 -968 Descending Houston Center
Sat 01:10:21 PM 30.0278 -90.4131 106° East 235 270 1,900 -818 Level Houston Center
Sat 01:11:16 PM 30.0147 -90.3556 105° East 187 215 1,000 -871 Descending Houston Center
Sat 01:11:23 PM 30.0139 -90.3533 113° Southeast 216 249 1,000 -441 Level Houston Center
Sat 01:12:24 PM 30.0042 -90.3117 105° East 170 196 500 -583 Descending Houston Center
Sat 01:12:35 PM 30.0003 -90.2986 109° East 130 150 300 -1,091 Descending Houston Center
Sat 01:14:00 PM 29.9933 -90.2590 101° East  Level Estimated
Sat 01:21:00 PM 29.9933 -90.2590 101° East  Level Estimated
Sat 01:22:00 PM 29.9933 -90.2590 101° East  Level Estimated
Sat 01:23:00 PM 29.9933 -90.2590 101° East  Level Estimated

Login

Don't have an account? Register now (free) for customized features, flight alerts, and more!